createdAt,value
2023-02-03T00:02:00.328Z,10.75
2023-02-03T00:06:04.103Z,8.77
2023-02-03T00:10:08.822Z,9.77
2023-02-03T00:14:13.561Z,9.15
2023-02-03T00:18:17.096Z,10.10
2023-02-03T00:22:21.896Z,7.90
2023-02-03T00:26:26.240Z,7.53
2023-02-03T00:30:31.654Z,11.05
2023-02-03T00:34:34.986Z,12.30
2023-02-03T00:38:38.674Z,11.82
2023-02-03T00:42:42.108Z,10.02
2023-02-03T00:46:47.036Z,11.88
2023-02-03T00:50:50.757Z,11.18
2023-02-03T00:54:54.391Z,8.98
2023-02-03T00:58:58.059Z,10.80
2023-02-03T01:03:03.976Z,9.52
2023-02-03T01:07:07.562Z,13.20
2023-02-03T01:11:12.980Z,13.30
2023-02-03T01:15:16.639Z,9.68
2023-02-03T01:19:21.896Z,11.82
2023-02-03T01:23:25.350Z,10.50
2023-02-03T01:27:28.873Z,11.27
2023-02-03T01:31:35.544Z,14.57
2023-02-03T01:35:41.929Z,12.25
2023-02-03T01:39:45.409Z,10.48
2023-02-03T01:43:50.525Z,13.55
2023-02-03T01:47:57.531Z,12.48
2023-02-03T01:52:03.375Z,19.98
2023-02-03T01:56:08.318Z,16.88
2023-02-03T02:00:13.365Z,11.52
2023-02-03T02:04:18.046Z,16.75
2023-02-03T02:08:24.163Z,16.35
2023-02-03T02:12:27.727Z,14.75
2023-02-03T02:16:40.419Z,20.05
2023-02-03T02:21:28.629Z,15.48
2023-02-03T02:25:55.592Z,17.88
2023-02-03T02:30:42.196Z,13.43
2023-02-03T02:34:54.405Z,14.73
2023-02-03T02:39:01.213Z,12.93
2023-02-03T02:43:10.271Z,15.77
2023-02-03T02:47:19.412Z,15.23
2023-02-03T02:51:25.246Z,14.70
2023-02-03T02:55:32.345Z,17.00
2023-02-03T02:59:36.116Z,12.45
2023-02-03T03:03:43.206Z,20.80
2023-02-03T03:07:51.198Z,16.42
2023-02-03T03:11:59.701Z,16.48
2023-02-03T03:16:04.284Z,16.42
2023-02-03T03:20:11.956Z,17.55
2023-02-03T03:24:20.796Z,18.08
2023-02-03T03:28:30.376Z,21.08
2023-02-03T03:32:34.253Z,17.50
2023-02-03T03:36:46.131Z,16.55
2023-02-03T03:40:54.836Z,16.65
2023-02-03T03:45:00.871Z,13.48
2023-02-03T03:49:05.696Z,14.68
2023-02-03T03:53:11.695Z,14.13
2023-02-03T03:57:20.407Z,16.50
2023-02-03T04:01:25.061Z,17.73
2023-02-03T04:05:29.269Z,15.02
2023-02-03T04:09:36.787Z,16.35
2023-02-03T04:13:41.651Z,19.73
2023-02-03T04:17:45.145Z,18.42
2023-02-03T04:21:48.795Z,16.20
2023-02-03T04:25:52.683Z,17.65
2023-02-03T04:29:57.522Z,16.38
2023-02-03T04:34:01.475Z,15.70
2023-02-03T04:38:04.792Z,14.05
2023-02-03T04:42:08.531Z,18.98
2023-02-03T04:46:13.527Z,18.00
2023-02-03T04:50:18.214Z,19.95
2023-02-03T04:54:21.610Z,16.55
2023-02-03T04:58:26.667Z,18.85
2023-02-03T05:02:31.628Z,16.65
2023-02-03T05:06:35.445Z,16.80
2023-02-03T05:10:39.134Z,16.63
2023-02-03T05:14:42.803Z,13.43
2023-02-03T05:18:47.780Z,12.25
2023-02-03T05:22:51.192Z,10.68
2023-02-03T05:26:54.630Z,12.35
2023-02-03T05:31:00.308Z,19.02
2023-02-03T05:35:05.297Z,15.68
2023-02-03T05:39:08.870Z,19.15
2023-02-03T05:43:12.171Z,10.27
2023-02-03T05:47:16.497Z,13.10
2023-02-03T05:51:21.314Z,12.00
2023-02-03T05:55:24.980Z,18.48
2023-02-03T05:59:28.257Z,17.55
2023-02-03T06:03:31.835Z,15.35
2023-02-03T06:07:37.061Z,16.02
2023-02-03T06:11:41.717Z,14.32
2023-02-03T06:15:45.434Z,25.50
2023-02-03T06:19:49.297Z,12.45
2023-02-03T06:23:54.811Z,12.23
2023-02-03T06:27:58.138Z,11.27
2023-02-03T06:32:01.538Z,17.65
2023-02-03T06:36:05.172Z,14.27
2023-02-03T06:40:12.347Z,13.77
2023-02-03T06:44:15.308Z,15.13
2023-02-03T06:48:18.328Z,14.57
2023-02-03T06:52:21.561Z,13.27
2023-02-03T06:56:26.903Z,14.20
2023-02-03T07:00:29.985Z,14.00
2023-02-03T07:04:33.100Z,15.70
2023-02-03T07:08:36.887Z,15.82
2023-02-03T07:12:41.060Z,13.02
2023-02-03T07:20:47.272Z,10.48
2023-02-03T07:24:49.995Z,15.48
2023-02-03T07:28:54.612Z,16.02
2023-02-03T07:32:57.469Z,11.52
2023-02-03T07:37:00.437Z,9.93
2023-02-03T07:41:03.239Z,13.65
2023-02-03T07:45:11.308Z,13.00
2023-02-03T07:49:14.923Z,10.45
2023-02-03T07:53:17.935Z,12.40
2023-02-03T07:57:20.835Z,10.52
2023-02-03T08:01:27.256Z,11.52
2023-02-03T08:05:30.585Z,10.90
2023-02-03T08:09:33.363Z,9.35
2023-02-03T08:13:36.221Z,9.30
2023-02-03T08:17:42.088Z,13.25
2023-02-03T08:21:44.909Z,10.75
2023-02-03T08:25:52.159Z,9.73
2023-02-03T08:29:55.108Z,14.43
2023-02-03T08:33:59.772Z,14.82
2023-02-03T08:38:02.532Z,11.65
2023-02-03T08:42:08.711Z,11.30
2023-02-03T08:46:14.132Z,7.65
2023-02-03T08:50:19.809Z,7.88
2023-02-03T08:54:25.498Z,8.15
2023-02-03T08:58:28.385Z,7.53
2023-02-03T09:02:31.240Z,8.20
2023-02-03T09:06:36.197Z,5.72
2023-02-03T09:10:39.298Z,7.93
2023-02-03T09:14:42.381Z,5.80
2023-02-03T09:18:45.870Z,5.70
2023-02-03T09:22:50.736Z,8.60
2023-02-03T09:26:55.272Z,5.57
2023-02-03T09:31:02.043Z,5.55
2023-02-03T09:35:05.012Z,4.70
2023-02-03T09:39:09.398Z,4.03
2023-02-03T09:43:23.911Z,5.65
2023-02-03T09:47:29.650Z,6.10
2023-02-03T09:51:37.060Z,9.15
2023-02-03T09:55:43.699Z,5.00
2023-02-03T09:59:46.769Z,6.45
2023-02-03T10:03:53.244Z,5.22
2023-02-03T10:08:04.259Z,7.53
2023-02-03T10:12:34.579Z,6.63
2023-02-03T10:16:45.738Z,5.65
2023-02-03T10:20:50.369Z,3.60
2023-02-03T10:24:56.786Z,4.80
2023-02-03T10:29:07.957Z,3.85
2023-02-03T10:33:13.230Z,4.35
2023-02-03T10:37:23.628Z,3.70
2023-02-03T10:41:26.934Z,3.65
2023-02-03T10:45:33.297Z,3.05
2023-02-03T10:49:36.095Z,3.42
2023-02-03T10:53:39.434Z,5.07
2023-02-03T10:57:42.332Z,4.57
2023-02-03T11:01:49.326Z,3.88
2023-02-03T11:06:06.141Z,3.58
2023-02-03T11:10:31.129Z,3.75
2023-02-03T11:14:38.178Z,3.72
2023-02-03T11:18:49.965Z,2.40
2023-02-03T11:22:53.260Z,2.80
2023-02-03T11:26:58.101Z,2.05
2023-02-03T11:31:01.543Z,3.40
2023-02-03T11:35:16.046Z,4.07
2023-02-03T11:39:28.368Z,3.15
2023-02-03T11:43:33.211Z,3.60
2023-02-03T11:47:36.459Z,2.70
2023-02-03T11:51:46.290Z,4.47
2023-02-03T11:55:58.247Z,1.52
2023-02-03T12:00:13.448Z,1.63
2023-02-03T12:04:44.396Z,5.75
2023-02-03T12:09:03.439Z,2.85
2023-02-03T12:13:18.285Z,2.22
2023-02-03T12:17:40.274Z,3.60
2023-02-03T12:21:45.974Z,1.90
2023-02-03T12:25:59.583Z,1.55
2023-02-03T12:30:05.795Z,1.70
2023-02-03T12:34:18.768Z,1.98
2023-02-03T12:38:28.657Z,4.45
2023-02-03T12:42:37.243Z,1.67
2023-02-03T12:46:44.949Z,4.15
2023-02-03T12:50:52.119Z,1.50
2023-02-03T12:55:02.605Z,1.73
2023-02-03T12:59:14.170Z,1.88
2023-02-03T13:03:24.751Z,16.00
2023-02-03T13:07:33.644Z,9.50
2023-02-03T13:11:39.887Z,2.42
2023-02-03T13:15:48.649Z,4.40
2023-02-03T13:19:55.083Z,3.17
2023-02-03T13:23:58.701Z,3.58
2023-02-03T13:28:12.464Z,3.17
2023-02-03T13:32:37.397Z,2.80
2023-02-03T13:36:59.249Z,3.22
2023-02-03T13:41:07.561Z,5.05
2023-02-03T13:45:18.769Z,3.22
2023-02-03T13:49:26.250Z,3.80
2023-02-03T13:53:29.771Z,3.45
2023-02-03T13:57:38.298Z,8.20
2023-02-03T14:01:42.153Z,9.40
2023-02-03T14:05:51.006Z,4.68
2023-02-03T14:10:23.466Z,6.50
2023-02-03T14:14:46.819Z,2.45
2023-02-03T14:18:50.101Z,4.20
2023-02-03T14:22:56.511Z,2.65
2023-02-03T14:27:01.044Z,4.53
2023-02-03T14:31:06.276Z,2.38
2023-02-03T14:35:16.980Z,2.38
2023-02-03T14:39:45.602Z,2.58
2023-02-03T14:43:52.253Z,4.72
2023-02-03T14:48:03.610Z,3.63
2023-02-03T14:52:17.309Z,3.42
2023-02-03T14:56:52.085Z,3.58
2023-02-03T15:00:55.847Z,3.90
2023-02-03T15:05:32.136Z,2.78
2023-02-03T15:09:39.736Z,3.03
2023-02-03T15:13:45.992Z,2.65
2023-02-03T15:17:49.905Z,2.83
2023-02-03T15:21:54.915Z,3.58
2023-02-03T15:26:00.146Z,3.20
2023-02-03T15:30:18.699Z,3.30
2023-02-03T15:34:25.095Z,2.95
2023-02-03T15:38:30.962Z,5.60
2023-02-03T15:42:40.790Z,5.47
2023-02-03T15:46:48.357Z,6.78
2023-02-03T15:50:53.383Z,2.67
2023-02-03T15:55:05.652Z,3.50
2023-02-03T15:59:20.858Z,3.47
2023-02-03T16:03:28.774Z,5.00
2023-02-03T16:07:32.187Z,4.78
2023-02-03T16:11:38.114Z,2.03
2023-02-03T16:15:41.222Z,4.70
2023-02-03T16:19:48.792Z,2.45
2023-02-03T16:23:52.664Z,3.28
2023-02-03T16:28:15.765Z,4.32
2023-02-03T16:32:38.032Z,9.43
2023-02-03T16:37:01.959Z,14.70
2023-02-03T16:41:23.607Z,3.60
2023-02-03T16:45:44.456Z,7.05
2023-02-03T16:50:05.718Z,6.55
2023-02-03T16:54:13.223Z,3.55
2023-02-03T16:58:16.911Z,15.25
2023-02-03T17:02:20.033Z,17.23
2023-02-03T17:06:24.597Z,4.50
2023-02-03T17:10:33.245Z,4.95
2023-02-03T17:14:38.147Z,6.50
2023-02-03T17:18:48.637Z,4.40
2023-02-03T17:22:54.708Z,4.45
2023-02-03T17:26:59.476Z,6.15
2023-02-03T17:31:05.913Z,5.90
2023-02-03T17:35:10.544Z,3.97
2023-02-03T17:56:48.215Z,6.13
2023-02-03T18:00:52.865Z,5.60
2023-02-03T18:04:57.523Z,5.28
2023-02-03T18:09:02.674Z,5.22
2023-02-03T18:13:06.763Z,6.10
2023-02-03T18:17:12.503Z,5.30
2023-02-03T18:21:18.179Z,10.00
2023-02-03T18:25:22.314Z,9.10
2023-02-03T18:29:26.282Z,10.63
2023-02-03T18:33:34.680Z,7.88
2023-02-03T18:37:39.144Z,8.43
2023-02-03T18:41:42.436Z,6.65
2023-02-03T18:45:46.478Z,12.75
2023-02-03T18:49:50.865Z,6.63
2023-02-03T18:53:58.382Z,5.95
2023-02-03T18:58:02.281Z,7.35
2023-02-03T19:02:06.184Z,5.97
2023-02-03T19:06:14.735Z,5.93
2023-02-03T19:10:18.553Z,7.78
2023-02-03T19:14:30.102Z,7.40
2023-02-03T19:18:33.202Z,4.90
2023-02-03T19:22:38.460Z,6.72
2023-02-03T19:26:41.927Z,8.25
2023-02-03T19:30:46.015Z,7.95
2023-02-03T19:34:57.740Z,9.05
2023-02-03T19:39:02.740Z,6.47
2023-02-03T19:43:06.304Z,7.22
2023-02-03T19:47:11.169Z,7.30
2023-02-03T19:51:14.642Z,8.88
2023-02-03T19:55:18.951Z,12.07
2023-02-03T19:59:23.097Z,11.23
2023-02-03T20:03:26.548Z,12.35
2023-02-03T20:07:33.750Z,11.15
2023-02-03T20:11:39.258Z,9.65
2023-02-03T20:15:42.205Z,10.32
2023-02-03T20:19:45.167Z,14.10
2023-02-03T20:23:48.561Z,13.75
2023-02-03T20:27:57.155Z,9.65
2023-02-03T20:32:00.841Z,13.15
2023-02-03T20:36:12.780Z,13.70
2023-02-03T20:40:18.249Z,8.88
2023-02-03T20:44:23.356Z,10.48
2023-02-03T20:48:27.177Z,9.95
2023-02-03T20:52:29.950Z,10.73
2023-02-03T20:56:36.219Z,10.95
2023-02-03T21:00:40.853Z,12.32
2023-02-03T21:04:59.011Z,10.68
2023-02-03T21:09:10.156Z,10.15
2023-02-03T21:13:20.674Z,13.05
2023-02-03T21:17:27.675Z,12.05
2023-02-03T21:21:35.617Z,11.77
2023-02-03T21:25:38.794Z,13.65
2023-02-03T21:29:42.933Z,13.23
2023-02-03T21:33:48.008Z,13.35
2023-02-03T21:37:53.112Z,17.35
2023-02-03T21:41:57.481Z,15.98
2023-02-03T21:46:01.778Z,11.32
2023-02-03T21:50:33.336Z,18.50
2023-02-03T21:54:41.950Z,14.52
2023-02-03T21:58:47.509Z,18.00
2023-02-03T22:02:57.635Z,15.15
2023-02-03T22:07:02.454Z,19.85
2023-02-03T22:11:05.715Z,19.90
2023-02-03T22:15:10.298Z,19.00
2023-02-03T22:19:13.109Z,16.25
2023-02-03T22:23:17.699Z,18.42
2023-02-03T22:27:21.053Z,14.63
2023-02-03T22:31:24.146Z,19.80
2023-02-03T22:35:27.541Z,15.20
2023-02-03T22:39:32.270Z,15.43
2023-02-03T22:43:35.360Z,17.00
2023-02-03T22:47:38.635Z,17.33
2023-02-03T22:51:42.004Z,18.85
2023-02-03T22:55:46.712Z,16.15
2023-02-03T22:59:52.478Z,16.92
2023-02-03T23:03:55.957Z,17.33
2023-02-03T23:07:58.796Z,15.98
2023-02-03T23:12:03.841Z,16.17
2023-02-03T23:16:06.980Z,16.55
2023-02-03T23:20:12.315Z,16.33
2023-02-03T23:24:15.812Z,15.65
2023-02-03T23:28:20.618Z,17.25
2023-02-03T23:32:30.909Z,17.65
2023-02-03T23:36:34.487Z,17.23
2023-02-03T23:40:37.568Z,16.60
2023-02-03T23:44:42.600Z,19.73
2023-02-03T23:48:45.516Z,19.98
2023-02-03T23:52:49.008Z,17.40
2023-02-03T23:56:52.832Z,16.67
